Aviation Digital Data Service (ADDS)

Output produced by METARs form (2133 UTC 16 August 2017)
found at http://www.aviationweather.gov/adds/metars/
 
LZKZ 162130Z 01005KT CAVOK 19/14 Q1020
TAF LZKZ 161700Z 1618/1718 VRB02KT CAVOK 
     BECMG 1619/1621 01008KT 
     TEMPO 1704/1708 02012KT 
     TEMPO 1712/1717 13006KT 9999 -SHRA FEW045TCU SCT070
       
LZIB 162130Z 31007KT CAVOK 24/15 Q1020
TAF LZIB 161700Z 1618/1718 32012KT CAVOK 
     PROB40 
     TEMPO 1618/1700 9999 -SHRA FEW050CB SCT070 
     BECMG 1620/1622 33006KT 
     BECMG 1708/1710 9999 FEW045 
     TEMPO 1712/1717 28008KT -SHRA FEW050CB SCT060
       
TAF LZMC 161930Z 1621/1706 VRB04KT CAVOK 
     PROB30 
     TEMPO 1702/1706 5000 BCFG BR NSC
       
LZPP 162130Z AUTO 01004KT 9999 NCD 22/16 Q1020
TAF LZPP 161700Z 1618/1703 01006KT CAVOK 
     PROB40 
     TEMPO 1618/1619 31016KT 9999 FEW050TCU SCT080 
     TEMPO 1623/1703 7000 MIFG FEW003 SCT100
       
LZSL 162130Z 00000KT CAVOK 17/12 Q1020
TAF LZSL 162000Z 1621/1706 VRB02KT CAVOK
       
LZTT 162130Z 26005KT CAVOK 14/11 Q1022
TAF LZTT 161700Z 1618/1718 VRB02KT 9999 FEW070 
     PROB40 
     TEMPO 1618/1620 06010KT -SHRA FEW055CB BKN070 
     BECMG 1620/1622 30005KT 
     BECMG 1706/1708 08007KT 
     TEMPO 1710/1718 11010KT -SHRA SCT050TCU 
     PROB30 
     TEMPO 1714/1717 4000 TSRA SCT040CB SCT050
       
LZZI 162130Z VRB02KT CAVOK 20/17 Q1021
TAF LZZI 162000Z 1621/1706 03004KT 9999 FEW050 
     BECMG 1623/1701 4500 BR SCT004 
     PROB30 
     TEMPO 1701/1706 1200 BCFG BKN003